ADDS METAR Data INFO
IDs: Format: Raw Decoded Include TAF

Data at: 0636 UTC 15 Dec 2017

METAR for:KFPR (Ft Pierce/St Lucie I, FL, US)
Text:KFPR 150553Z AUTO 00000KT 10SM CLR 09/08 A3009 RMK AO2 SLP189 T00940083 10172 20094 50001
Temperature: 9.4°C ( 49°F)
Dewpoint: 8.3°C ( 47°F) [RH = 93%]
Pressure (altimeter):30.09 inches Hg (1019.0 mb) [Sea level pressure: 1018.9 mb]
Winds:calm
Visibility:10 or more sm (16+ km)
Ceiling:at least 12,000 feet AGL
Clouds:sky clear below 12,000 feet AGL
QC Flag:automated observation with no human augmentation